sensor_id;sensor_type;location;lat;lon;timestamp;P1;durP1;ratioP1;P2;durP2;ratioP2
41546;SDS011;27271;45.412;10.852;2023-10-09T04:07:45;0.65;;;0.65;;
41546;SDS011;27271;45.412;10.852;2023-10-09T04:11:14;4.32;;;0.82;;
41546;SDS011;27271;45.412;10.852;2023-10-09T04:14:44;4.28;;;1.48;;
41546;SDS011;27271;45.412;10.852;2023-10-09T04:18:16;0.82;;;0.80;;
41546;SDS011;27271;45.412;10.852;2023-10-09T04:21:39;6.68;;;2.00;;
41546;SDS011;27271;45.412;10.852;2023-10-09T04:25:03;4.03;;;1.58;;
41546;SDS011;27271;45.412;10.852;2023-10-09T04:28:29;2.00;;;1.00;;
41546;SDS011;27271;45.412;10.852;2023-10-09T04:31:55;1.00;;;0.70;;
41546;SDS011;27271;45.412;10.852;2023-10-09T04:35:18;3.00;;;1.45;;
41546;SDS011;27271;45.412;10.852;2023-10-09T04:38:43;1.38;;;1.13;;
41546;SDS011;27271;45.412;10.852;2023-10-09T04:42:17;2.17;;;0.50;;
41546;SDS011;27271;45.412;10.852;2023-10-09T04:45:47;2.17;;;0.80;;
41546;SDS011;27271;45.412;10.852;2023-10-09T04:49:40;0.82;;;0.82;;
41546;SDS011;27271;45.412;10.852;2023-10-09T04:53:18;5.85;;;1.23;;
41546;SDS011;27271;45.412;10.852;2023-10-09T04:56:43;12.25;;;1.10;;
41546;SDS011;27271;45.412;10.852;2023-10-09T05:00:15;1.38;;;1.08;;
41546;SDS011;27271;45.412;10.852;2023-10-09T05:03:47;0.85;;;0.80;;
41546;SDS011;27271;45.412;10.852;2023-10-09T05:07:19;0.95;;;0.47;;
41546;SDS011;27271;45.412;10.852;2023-10-09T05:10:46;0.38;;;0.38;;
41546;SDS011;27271;45.412;10.852;2023-10-09T05:14:37;0.30;;;0.22;;
41546;SDS011;27271;45.412;10.852;2023-10-09T05:18:07;1.48;;;0.30;;
41546;SDS011;27271;45.412;10.852;2023-10-09T05:21:35;1.00;;;0.50;;
41546;SDS011;27271;45.412;10.852;2023-10-09T05:25:05;1.65;;;0.60;;
41546;SDS011;27271;45.412;10.852;2023-10-09T05:28:37;0.28;;;0.28;;
41546;SDS011;27271;45.412;10.852;2023-10-09T05:32:26;0.75;;;0.73;;
41546;SDS011;27271;45.412;10.852;2023-10-09T05:35:56;0.30;;;0.10;;
41546;SDS011;27271;45.412;10.852;2023-10-09T05:39:37;0.17;;;0.17;;
41546;SDS011;27271;45.412;10.852;2023-10-09T05:43:03;1.83;;;0.98;;
41546;SDS011;27271;45.412;10.852;2023-10-09T05:46:26;4.28;;;0.77;;
41546;SDS011;27271;45.412;10.852;2023-10-09T05:49:58;5.22;;;2.58;;
41546;SDS011;27271;45.412;10.852;2023-10-09T05:53:43;0.60;;;0.50;;
41546;SDS011;27271;45.412;10.852;2023-10-09T05:57:05;0.77;;;0.55;;
41546;SDS011;27271;45.412;10.852;2023-10-09T06:00:46;0.25;;;0.25;;
41546;SDS011;27271;45.412;10.852;2023-10-09T06:04:27;0.65;;;0.40;;
41546;SDS011;27271;45.412;10.852;2023-10-09T06:08:16;1.02;;;0.77;;
41546;SDS011;27271;45.412;10.852;2023-10-09T06:12:00;2.67;;;0.50;;
41546;SDS011;27271;45.412;10.852;2023-10-09T06:15:42;0.43;;;0.40;;
41546;SDS011;27271;45.412;10.852;2023-10-09T06:22:41;1.65;;;0.95;;
41546;SDS011;27271;45.412;10.852;2023-10-09T06:26:18;0.45;;;0.45;;
41546;SDS011;27271;45.412;10.852;2023-10-09T06:29:47;0.65;;;0.65;;
41546;SDS011;27271;45.412;10.852;2023-10-09T06:33:12;1.70;;;1.60;;
41546;SDS011;27271;45.412;10.852;2023-10-09T06:36:42;4.80;;;1.08;;
41546;SDS011;27271;45.412;10.852;2023-10-09T06:40:14;1.60;;;1.20;;
41546;SDS011;27271;45.412;10.852;2023-10-09T06:44:15;1.25;;;0.52;;
41546;SDS011;27271;45.412;10.852;2023-10-09T06:47:57;1.58;;;0.98;;
41546;SDS011;27271;45.412;10.852;2023-10-09T06:51:42;2.22;;;1.63;;
41546;SDS011;27271;45.412;10.852;2023-10-09T06:55:04;2.88;;;1.33;;
41546;SDS011;27271;45.412;10.852;2023-10-09T06:58:40;4.53;;;1.60;;
41546;SDS011;27271;45.412;10.852;2023-10-09T07:02:10;6.03;;;1.73;;
41546;SDS011;27271;45.412;10.852;2023-10-09T07:05:32;2.92;;;1.88;;
41546;SDS011;27271;45.412;10.852;2023-10-09T07:09:10;2.90;;;2.28;;
41546;SDS011;27271;45.412;10.852;2023-10-09T07:12:32;10.20;;;2.55;;
41546;SDS011;27271;45.412;10.852;2023-10-09T07:15:54;3.28;;;2.22;;
41546;SDS011;27271;45.412;10.852;2023-10-09T07:19:35;2.20;;;1.63;;
41546;SDS011;27271;45.412;10.852;2023-10-09T07:23:03;7.63;;;3.10;;
41546;SDS011;27271;45.412;10.852;2023-10-09T07:26:42;5.70;;;3.20;;
41546;SDS011;27271;45.412;10.852;2023-10-09T07:30:15;4.97;;;2.63;;
41546;SDS011;27271;45.412;10.852;2023-10-09T07:33:51;3.53;;;3.08;;
41546;SDS011;27271;45.412;10.852;2023-10-09T07:37:19;4.70;;;1.95;;
41546;SDS011;27271;45.412;10.852;2023-10-09T07:40:46;2.42;;;1.88;;
41546;SDS011;27271;45.412;10.852;2023-10-09T07:44:17;3.75;;;2.42;;
41546;SDS011;27271;45.412;10.852;2023-10-09T07:47:57;3.97;;;1.97;;
41546;SDS011;27271;45.412;10.852;2023-10-09T07:51:26;9.30;;;3.10;;
41546;SDS011;27271;45.412;10.852;2023-10-09T07:54:54;3.53;;;1.92;;
41546;SDS011;27271;45.412;10.852;2023-10-09T07:58:25;4.15;;;2.20;;
41546;SDS011;27271;45.412;10.852;2023-10-09T08:01:48;4.35;;;2.78;;
41546;SDS011;27271;45.412;10.852;2023-10-09T08:05:15;3.58;;;2.13;;
41546;SDS011;27271;45.412;10.852;2023-10-09T08:08:40;8.32;;;3.13;;
41546;SDS011;27271;45.412;10.852;2023-10-09T08:12:23;5.15;;;2.90;;
41546;SDS011;27271;45.412;10.852;2023-10-09T08:16:08;8.38;;;2.65;;
41546;SDS011;27271;45.412;10.852;2023-10-09T08:19:38;11.52;;;3.10;;
41546;SDS011;27271;45.412;10.852;2023-10-09T08:23:18;8.20;;;3.10;;
41546;SDS011;27271;45.412;10.852;2023-10-09T08:27:10;6.93;;;3.45;;
41546;SDS011;27271;45.412;10.852;2023-10-09T08:30:52;6.35;;;3.67;;
41546;SDS011;27271;45.412;10.852;2023-10-09T08:34:17;10.18;;;3.88;;
41546;SDS011;27271;45.412;10.852;2023-10-09T08:37:51;4.05;;;3.65;;
41546;SDS011;27271;45.412;10.852;2023-10-09T08:41:14;7.50;;;4.13;;
41546;SDS011;27271;45.412;10.852;2023-10-09T08:44:40;5.95;;;3.45;;
41546;SDS011;27271;45.412;10.852;2023-10-09T08:48:08;7.22;;;3.47;;
41546;SDS011;27271;45.412;10.852;2023-10-09T08:51:37;6.72;;;3.53;;
41546;SDS011;27271;45.412;10.852;2023-10-09T08:55:00;9.43;;;4.10;;
41546;SDS011;27271;45.412;10.852;2023-10-09T08:58:23;6.72;;;3.35;;
41546;SDS011;27271;45.412;10.852;2023-10-09T09:01:54;9.82;;;4.78;;
41546;SDS011;27271;45.412;10.852;2023-10-09T09:05:20;8.38;;;3.65;;
41546;SDS011;27271;45.412;10.852;2023-10-09T09:08:43;7.63;;;4.18;;
41546;SDS011;27271;45.412;10.852;2023-10-09T09:12:07;8.55;;;4.72;;
41546;SDS011;27271;45.412;10.852;2023-10-09T09:15:36;13.57;;;4.50;;
41546;SDS011;27271;45.412;10.852;2023-10-09T09:19:05;7.53;;;3.53;;
41546;SDS011;27271;45.412;10.852;2023-10-09T09:22:33;7.95;;;3.83;;
41546;SDS011;27271;45.412;10.852;2023-10-09T09:26:32;11.07;;;3.72;;
41546;SDS011;27271;45.412;10.852;2023-10-09T09:29:58;4.18;;;3.20;;
41546;SDS011;27271;45.412;10.852;2023-10-09T09:33:32;8.23;;;4.40;;
41546;SDS011;27271;45.412;10.852;2023-10-09T09:37:01;8.68;;;3.40;;
41546;SDS011;27271;45.412;10.852;2023-10-09T09:40:25;7.82;;;3.85;;
41546;SDS011;27271;45.412;10.852;2023-10-09T09:43:56;6.20;;;3.40;;
41546;SDS011;27271;45.412;10.852;2023-10-09T09:47:23;5.55;;;3.72;;
41546;SDS011;27271;45.412;10.852;2023-10-09T09:50:48;12.18;;;4.32;;
41546;SDS011;27271;45.412;10.852;2023-10-09T09:54:16;9.38;;;3.83;;
41546;SDS011;27271;45.412;10.852;2023-10-09T09:57:38;6.18;;;2.67;;
41546;SDS011;27271;45.412;10.852;2023-10-09T10:01:03;6.53;;;2.83;;
41546;SDS011;27271;45.412;10.852;2023-10-09T10:04:47;4.85;;;3.38;;
41546;SDS011;27271;45.412;10.852;2023-10-09T10:08:15;13.75;;;3.58;;
41546;SDS011;27271;45.412;10.852;2023-10-09T10:11:44;8.35;;;2.85;;
41546;SDS011;27271;45.412;10.852;2023-10-09T10:15:15;4.55;;;2.60;;
41546;SDS011;27271;45.412;10.852;2023-10-09T10:22:24;3.75;;;2.50;;
41546;SDS011;27271;45.412;10.852;2023-10-09T10:25:52;7.40;;;2.63;;
41546;SDS011;27271;45.412;10.852;2023-10-09T10:29:22;3.65;;;1.80;;
41546;SDS011;27271;45.412;10.852;2023-10-09T10:32:54;3.13;;;2.20;;
41546;SDS011;27271;45.412;10.852;2023-10-09T10:36:19;4.38;;;1.38;;
41546;SDS011;27271;45.412;10.852;2023-10-09T10:39:50;1.27;;;0.85;;
41546;SDS011;27271;45.412;10.852;2023-10-09T10:43:16;5.20;;;1.70;;
41546;SDS011;27271;45.412;10.852;2023-10-09T10:47:09;3.00;;;2.20;;
41546;SDS011;27271;45.412;10.852;2023-10-09T10:50:45;2.50;;;0.93;;
41546;SDS011;27271;45.412;10.852;2023-10-09T10:54:07;6.72;;;1.27;;
41546;SDS011;27271;45.412;10.852;2023-10-09T10:57:49;2.67;;;2.17;;
41546;SDS011;27271;45.412;10.852;2023-10-09T11:01:24;2.05;;;1.02;;
41546;SDS011;27271;45.412;10.852;2023-10-09T11:05:11;6.28;;;3.15;;
41546;SDS011;27271;45.412;10.852;2023-10-09T11:08:45;2.50;;;0.80;;
41546;SDS011;27271;45.412;10.852;2023-10-09T11:12:20;2.10;;;1.38;;
41546;SDS011;27271;45.412;10.852;2023-10-09T11:15:45;2.25;;;1.48;;
41546;SDS011;27271;45.412;10.852;2023-10-09T11:19:19;2.28;;;1.13;;
41546;SDS011;27271;45.412;10.852;2023-10-09T11:22:49;1.70;;;1.10;;
41546;SDS011;27271;45.412;10.852;2023-10-09T11:26:32;6.88;;;1.48;;
41546;SDS011;27271;45.412;10.852;2023-10-09T11:30:02;7.07;;;0.63;;
41546;SDS011;27271;45.412;10.852;2023-10-09T11:33:46;1.30;;;1.00;;
41546;SDS011;27271;45.412;10.852;2023-10-09T11:37:15;0.75;;;0.57;;
41546;SDS011;27271;45.412;10.852;2023-10-09T11:40:37;2.63;;;1.10;;
41546;SDS011;27271;45.412;10.852;2023-10-09T11:44:37;13.93;;;2.97;;
41546;SDS011;27271;45.412;10.852;2023-10-09T11:52:08;1.60;;;0.98;;
41546;SDS011;27271;45.412;10.852;2023-10-09T11:55:31;3.65;;;1.65;;
41546;SDS011;27271;45.412;10.852;2023-10-09T11:58:54;1.48;;;0.77;;
41546;SDS011;27271;45.412;10.852;2023-10-09T12:02:20;2.25;;;1.05;;
41546;SDS011;27271;45.412;10.852;2023-10-09T12:05:42;12.50;;;1.52;;
41546;SDS011;27271;45.412;10.852;2023-10-09T12:09:05;8.73;;;1.15;;
41546;SDS011;27271;45.412;10.852;2023-10-09T12:12:27;0.57;;;0.57;;
41546;SDS011;27271;45.412;10.852;2023-10-09T12:15:50;5.25;;;1.00;;
41546;SDS011;27271;45.412;10.852;2023-10-09T12:19:16;8.32;;;1.73;;
41546;SDS011;27271;45.412;10.852;2023-10-09T12:22:38;2.88;;;1.05;;
41546;SDS011;27271;45.412;10.852;2023-10-09T12:26:02;2.08;;;1.60;;
41546;SDS011;27271;45.412;10.852;2023-10-09T12:29:26;0.60;;;0.60;;
41546;SDS011;27271;45.412;10.852;2023-10-09T12:32:52;1.10;;;0.88;;
41546;SDS011;27271;45.412;10.852;2023-10-09T12:36:16;1.67;;;1.02;;
41546;SDS011;27271;45.412;10.852;2023-10-09T12:39:42;1.65;;;1.15;;
41546;SDS011;27271;45.412;10.852;2023-10-09T12:43:05;3.40;;;1.15;;
41546;SDS011;27271;45.412;10.852;2023-10-09T12:46:27;3.08;;;1.83;;
41546;SDS011;27271;45.412;10.852;2023-10-09T12:49:49;7.70;;;0.98;;
41546;SDS011;27271;45.412;10.852;2023-10-09T12:53:12;1.23;;;0.95;;
41546;SDS011;27271;45.412;10.852;2023-10-09T12:56:39;3.22;;;1.30;;
41546;SDS011;27271;45.412;10.852;2023-10-09T13:00:02;1.45;;;0.70;;
41546;SDS011;27271;45.412;10.852;2023-10-09T13:03:32;1.83;;;1.35;;
41546;SDS011;27271;45.412;10.852;2023-10-09T13:06:54;4.80;;;1.45;;
41546;SDS011;27271;45.412;10.852;2023-10-09T13:10:23;2.97;;;1.65;;
41546;SDS011;27271;45.412;10.852;2023-10-09T13:13:46;3.30;;;2.03;;
41546;SDS011;27271;45.412;10.852;2023-10-09T13:17:12;3.88;;;1.65;;
41546;SDS011;27271;45.412;10.852;2023-10-09T13:20:35;3.70;;;1.58;;
41546;SDS011;27271;45.412;10.852;2023-10-09T13:23:57;4.13;;;1.60;;
41546;SDS011;27271;45.412;10.852;2023-10-09T13:27:21;5.28;;;1.40;;
41546;SDS011;27271;45.412;10.852;2023-10-09T13:30:43;3.83;;;1.75;;
41546;SDS011;27271;45.412;10.852;2023-10-09T13:34:11;7.22;;;1.88;;
41546;SDS011;27271;45.412;10.852;2023-10-09T13:37:37;4.28;;;1.23;;
41546;SDS011;27271;45.412;10.852;2023-10-09T13:41:00;2.83;;;1.00;;
41546;SDS011;27271;45.412;10.852;2023-10-09T13:44:26;2.65;;;1.83;;
41546;SDS011;27271;45.412;10.852;2023-10-09T13:47:48;5.50;;;2.83;;
41546;SDS011;27271;45.412;10.852;2023-10-09T13:51:11;1.55;;;1.17;;
41546;SDS011;27271;45.412;10.852;2023-10-09T13:54:40;4.25;;;1.20;;
41546;SDS011;27271;45.412;10.852;2023-10-09T13:58:03;3.72;;;1.50;;
41546;SDS011;27271;45.412;10.852;2023-10-09T14:01:31;4.43;;;2.00;;
41546;SDS011;27271;45.412;10.852;2023-10-09T14:04:55;3.42;;;2.15;;
41546;SDS011;27271;45.412;10.852;2023-10-09T14:08:19;3.42;;;1.67;;
41546;SDS011;27271;45.412;10.852;2023-10-09T14:11:45;3.33;;;2.10;;
41546;SDS011;27271;45.412;10.852;2023-10-09T14:15:07;7.40;;;1.50;;
41546;SDS011;27271;45.412;10.852;2023-10-09T14:18:33;3.05;;;1.10;;
41546;SDS011;27271;45.412;10.852;2023-10-09T14:21:55;2.65;;;1.48;;
41546;SDS011;27271;45.412;10.852;2023-10-09T14:25:17;1.90;;;1.65;;
41546;SDS011;27271;45.412;10.852;2023-10-09T14:28:42;2.03;;;1.35;;
41546;SDS011;27271;45.412;10.852;2023-10-09T14:32:04;11.98;;;1.60;;
41546;SDS011;27271;45.412;10.852;2023-10-09T14:35:27;1.77;;;0.52;;
41546;SDS011;27271;45.412;10.852;2023-10-09T14:38:52;4.82;;;1.27;;
41546;SDS011;27271;45.412;10.852;2023-10-09T14:42:14;8.40;;;1.55;;
41546;SDS011;27271;45.412;10.852;2023-10-09T14:45:36;4.43;;;1.60;;
41546;SDS011;27271;45.412;10.852;2023-10-09T14:48:58;2.30;;;0.55;;
41546;SDS011;27271;45.412;10.852;2023-10-09T14:52:26;5.05;;;0.88;;
41546;SDS011;27271;45.412;10.852;2023-10-09T14:55:58;2.63;;;1.83;;
41546;SDS011;27271;45.412;10.852;2023-10-09T14:59:22;21.23;;;2.55;;
41546;SDS011;27271;45.412;10.852;2023-10-09T15:02:45;1.65;;;0.57;;
41546;SDS011;27271;45.412;10.852;2023-10-09T15:06:07;5.32;;;1.60;;
41546;SDS011;27271;45.412;10.852;2023-10-09T15:09:35;1.45;;;1.08;;
41546;SDS011;27271;45.412;10.852;2023-10-09T15:12:58;4.75;;;1.95;;
41546;SDS011;27271;45.412;10.852;2023-10-09T15:16:21;2.42;;;0.65;;
41546;SDS011;27271;45.412;10.852;2023-10-09T15:19:47;0.47;;;0.47;;
41546;SDS011;27271;45.412;10.852;2023-10-09T15:23:10;2.92;;;1.40;;
41546;SDS011;27271;45.412;10.852;2023-10-09T15:26:32;2.78;;;1.33;;
41546;SDS011;27271;45.412;10.852;2023-10-09T15:29:55;6.22;;;2.03;;
41546;SDS011;27271;45.412;10.852;2023-10-09T15:33:17;4.60;;;1.52;;
41546;SDS011;27271;45.412;10.852;2023-10-09T15:36:40;0.68;;;0.60;;
41546;SDS011;27271;45.412;10.852;2023-10-09T15:40:02;1.65;;;0.82;;
41546;SDS011;27271;45.412;10.852;2023-10-09T15:43:36;2.42;;;2.22;;
41546;SDS011;27271;45.412;10.852;2023-10-09T15:46:58;1.20;;;0.70;;
41546;SDS011;27271;45.412;10.852;2023-10-09T15:50:22;0.55;;;0.30;;
41546;SDS011;27271;45.412;10.852;2023-10-09T15:53:47;8.88;;;1.55;;
41546;SDS011;27271;45.412;10.852;2023-10-09T15:57:09;9.20;;;3.05;;
41546;SDS011;27271;45.412;10.852;2023-10-09T16:00:34;4.43;;;2.35;;
41546;SDS011;27271;45.412;10.852;2023-10-09T16:03:56;1.13;;;0.75;;
41546;SDS011;27271;45.412;10.852;2023-10-09T16:07:18;2.20;;;2.00;;
41546;SDS011;27271;45.412;10.852;2023-10-09T16:10:44;1.52;;;1.42;;
41546;SDS011;27271;45.412;10.852;2023-10-09T16:14:08;2.25;;;0.30;;
41546;SDS011;27271;45.412;10.852;2023-10-09T16:17:34;3.05;;;1.02;;
41546;SDS011;27271;45.412;10.852;2023-10-09T16:20:58;2.10;;;1.30;;
41546;SDS011;27271;45.412;10.852;2023-10-09T16:24:23;1.02;;;0.65;;
41546;SDS011;27271;45.412;10.852;2023-10-09T16:27:46;3.17;;;2.72;;
41546;SDS011;27271;45.412;10.852;2023-10-09T16:31:09;1.08;;;0.50;;
41546;SDS011;27271;45.412;10.852;2023-10-09T16:34:37;1.65;;;1.10;;
41546;SDS011;27271;45.412;10.852;2023-10-09T16:38:01;4.20;;;2.10;;
41546;SDS011;27271;45.412;10.852;2023-10-09T16:41:26;0.35;;;0.22;;
41546;SDS011;27271;45.412;10.852;2023-10-09T16:44:49;0.20;;;0.20;;
41546;SDS011;27271;45.412;10.852;2023-10-09T16:48:11;2.15;;;1.33;;
41546;SDS011;27271;45.412;10.852;2023-10-09T16:51:37;5.38;;;1.80;;
41546;SDS011;27271;45.412;10.852;2023-10-09T16:54:59;2.83;;;1.67;;
41546;SDS011;27271;45.412;10.852;2023-10-09T16:58:25;1.45;;;0.95;;
41546;SDS011;27271;45.412;10.852;2023-10-09T17:02:20;9.73;;;1.02;;
41546;SDS011;27271;45.412;10.852;2023-10-09T17:05:50;4.47;;;1.70;;
41546;SDS011;27271;45.412;10.852;2023-10-09T17:09:17;0.73;;;0.73;;
41546;SDS011;27271;45.412;10.852;2023-10-09T17:12:42;0.98;;;0.55;;
41546;SDS011;27271;45.412;10.852;2023-10-09T17:16:11;4.07;;;1.45;;
41546;SDS011;27271;45.412;10.852;2023-10-09T17:19:39;2.58;;;1.48;;
41546;SDS011;27271;45.412;10.852;2023-10-09T17:23:03;3.10;;;1.50;;
41546;SDS011;27271;45.412;10.852;2023-10-09T17:26:25;1.85;;;0.95;;
41546;SDS011;27271;45.412;10.852;2023-10-09T17:29:48;2.03;;;1.55;;
41546;SDS011;27271;45.412;10.852;2023-10-09T17:33:10;1.38;;;0.57;;
41546;SDS011;27271;45.412;10.852;2023-10-09T17:36:32;0.98;;;0.70;;
41546;SDS011;27271;45.412;10.852;2023-10-09T17:39:55;3.92;;;1.27;;
41546;SDS011;27271;45.412;10.852;2023-10-09T17:43:18;5.10;;;1.55;;
41546;SDS011;27271;45.412;10.852;2023-10-09T17:46:41;0.52;;;0.52;;
41546;SDS011;27271;45.412;10.852;2023-10-09T17:50:03;5.72;;;1.05;;
41546;SDS011;27271;45.412;10.852;2023-10-09T17:53:26;2.70;;;2.05;;
41546;SDS011;27271;45.412;10.852;2023-10-09T17:56:50;5.45;;;2.25;;
41546;SDS011;27271;45.412;10.852;2023-10-09T18:00:13;3.55;;;2.40;;
41546;SDS011;27271;45.412;10.852;2023-10-09T18:03:45;9.02;;;1.45;;
41546;SDS011;27271;45.412;10.852;2023-10-09T18:07:07;0.73;;;0.68;;
41546;SDS011;27271;45.412;10.852;2023-10-09T18:10:35;2.47;;;1.10;;
41546;SDS011;27271;45.412;10.852;2023-10-09T18:14:02;2.85;;;0.55;;
41546;SDS011;27271;45.412;10.852;2023-10-09T18:17:26;4.30;;;2.30;;
41546;SDS011;27271;45.412;10.852;2023-10-09T18:20:50;1.08;;;0.95;;
41546;SDS011;27271;45.412;10.852;2023-10-09T18:24:17;4.22;;;1.90;;
41546;SDS011;27271;45.412;10.852;2023-10-09T18:27:40;6.38;;;1.25;;
41546;SDS011;27271;45.412;10.852;2023-10-09T18:31:03;6.20;;;2.05;;
41546;SDS011;27271;45.412;10.852;2023-10-09T18:34:31;6.40;;;1.73;;
41546;SDS011;27271;45.412;10.852;2023-10-09T18:37:53;6.00;;;2.60;;
41546;SDS011;27271;45.412;10.852;2023-10-09T18:41:21;1.48;;;1.38;;
41546;SDS011;27271;45.412;10.852;2023-10-09T18:44:47;3.35;;;2.70;;
41546;SDS011;27271;45.412;10.852;2023-10-09T18:48:10;9.10;;;4.55;;
41546;SDS011;27271;45.412;10.852;2023-10-09T18:51:40;8.70;;;4.53;;
41546;SDS011;27271;45.412;10.852;2023-10-09T18:55:03;9.35;;;5.65;;
41546;SDS011;27271;45.412;10.852;2023-10-09T18:58:28;10.93;;;4.13;;
41546;SDS011;27271;45.412;10.852;2023-10-09T19:02:02;7.32;;;3.42;;
41546;SDS011;27271;45.412;10.852;2023-10-09T19:05:33;11.00;;;4.90;;
41546;SDS011;27271;45.412;10.852;2023-10-09T19:08:57;11.88;;;6.45;;
41546;SDS011;27271;45.412;10.852;2023-10-09T19:12:29;10.23;;;6.90;;
41546;SDS011;27271;45.412;10.852;2023-10-09T19:16:07;7.13;;;5.50;;
41546;SDS011;27271;45.412;10.852;2023-10-09T19:20:25;12.65;;;7.30;;
41546;SDS011;27271;45.412;10.852;2023-10-09T19:23:48;13.13;;;6.13;;
41546;SDS011;27271;45.412;10.852;2023-10-09T19:27:25;15.45;;;7.85;;
41546;SDS011;27271;45.412;10.852;2023-10-09T19:31:05;17.92;;;7.88;;
41546;SDS011;27271;45.412;10.852;2023-10-09T19:34:32;13.43;;;9.73;;
41546;SDS011;27271;45.412;10.852;2023-10-09T19:37:56;10.48;;;7.38;;
41546;SDS011;27271;45.412;10.852;2023-10-09T19:41:21;14.20;;;9.10;;
41546;SDS011;27271;45.412;10.852;2023-10-09T19:48:46;12.55;;;7.47;;
41546;SDS011;27271;45.412;10.852;2023-10-09T20:03:57;12.57;;;7.88;;
41546;SDS011;27271;45.412;10.852;2023-10-09T20:07:52;15.00;;;8.50;;
41546;SDS011;27271;45.412;10.852;2023-10-09T20:15:57;16.60;;;10.10;;
41546;SDS011;27271;45.412;10.852;2023-10-09T20:19:47;16.25;;;8.05;;
41546;SDS011;27271;45.412;10.852;2023-10-09T20:23:55;17.95;;;9.80;;
41546;SDS011;27271;45.412;10.852;2023-10-09T20:27:31;15.23;;;8.43;;
41546;SDS011;27271;45.412;10.852;2023-10-09T20:31:12;17.27;;;10.20;;
41546;SDS011;27271;45.412;10.852;2023-10-09T20:34:55;14.43;;;8.63;;
41546;SDS011;27271;45.412;10.852;2023-10-09T20:38:50;20.45;;;9.60;;
41546;SDS011;27271;45.412;10.852;2023-10-09T20:42:18;15.38;;;9.50;;
41546;SDS011;27271;45.412;10.852;2023-10-09T20:46:10;29.05;;;12.15;;
41546;SDS011;27271;45.412;10.852;2023-10-09T20:49:51;19.80;;;9.95;;
41546;SDS011;27271;45.412;10.852;2023-10-09T20:53:30;21.13;;;13.68;;
41546;SDS011;27271;45.412;10.852;2023-10-09T20:57:11;21.35;;;12.13;;
41546;SDS011;27271;45.412;10.852;2023-10-09T21:00:55;20.13;;;12.80;;
41546;SDS011;27271;45.412;10.852;2023-10-09T21:04:27;25.70;;;15.13;;
41546;SDS011;27271;45.412;10.852;2023-10-09T21:07:50;22.63;;;10.82;;
41546;SDS011;27271;45.412;10.852;2023-10-09T21:11:49;22.55;;;12.10;;
41546;SDS011;27271;45.412;10.852;2023-10-09T21:15:15;18.15;;;11.48;;
41546;SDS011;27271;45.412;10.852;2023-10-09T21:18:52;18.52;;;10.70;;
41546;SDS011;27271;45.412;10.852;2023-10-09T21:22:30;19.70;;;12.20;;
41546;SDS011;27271;45.412;10.852;2023-10-09T21:30:07;18.15;;;13.10;;
41546;SDS011;27271;45.412;10.852;2023-10-09T21:33:43;22.33;;;13.18;;
41546;SDS011;27271;45.412;10.852;2023-10-09T21:37:10;25.25;;;14.82;;
41546;SDS011;27271;45.412;10.852;2023-10-09T21:40:43;20.60;;;14.57;;
41546;SDS011;27271;45.412;10.852;2023-10-09T21:44:13;22.17;;;11.57;;
41546;SDS011;27271;45.412;10.852;2023-10-09T21:47:39;21.73;;;11.10;;
41546;SDS011;27271;45.412;10.852;2023-10-09T21:51:26;17.65;;;12.20;;
41546;SDS011;27271;45.412;10.852;2023-10-09T21:54:49;25.20;;;13.30;;
41546;SDS011;27271;45.412;10.852;2023-10-09T22:02:36;17.30;;;9.77;;
41546;SDS011;27271;45.412;10.852;2023-10-09T22:06:01;23.85;;;14.07;;
41546;SDS011;27271;45.412;10.852;2023-10-09T22:09:26;17.10;;;12.50;;
41546;SDS011;27271;45.412;10.852;2023-10-09T22:12:55;20.33;;;11.85;;
41546;SDS011;27271;45.412;10.852;2023-10-09T22:16:18;25.38;;;13.13;;
41546;SDS011;27271;45.412;10.852;2023-10-09T22:19:55;25.50;;;13.45;;
41546;SDS011;27271;45.412;10.852;2023-10-09T22:24:00;16.17;;;11.02;;
41546;SDS011;27271;45.412;10.852;2023-10-09T22:27:23;21.20;;;14.52;;
